Raleigh, North Dakota
Current Conditions -  °F | °C
As of 8:35 AM on Saturday 25 Oct 2014 (Local Time) from KY19 Reporting Station
Clear Clear  
Wind Chill:   Ceiling: Unl
Heat Index:   Visibility: 10mi
Dew Point:   Wind: 0mph
Humidity: 57%   Direction: NA
Pressure: 30.17"   Gusts: NA
Location:  46.36°N, 101.31°W
Report Text: KY19 251435Z AUTO 00000KT 10SM CLR 08/00 A3017 RMK AO2
Loading
Personal Weather Stations






























Interactive Weather Map
Tropical Storm Tracking
New forecast layout! Learn more

10-Day Weather Forecast

Advertisements
Track Severe Weather on mobile